Time;durP1;ratioP1;P1;durP2;ratioP2;P2;SDS_P1;SDS_P2;PMS_P1;PMS_P2;Temp;Humidity;BMP_temperature;BMP_pressure;BME280_temperature;BME280_humidity;BME280_pressure;Samples;Min_cycle;Max_cycle;Signal;HPM_P1;HPM_P2
2021/07/09 00:01:57;;;;;;;18.73;17.23;;;;;;;20.00;76.83;101647.22;5038495;28;20446;-66
2021/07/09 00:04:23;;;;;;;20.00;18.00;;;;;;;20.15;75.72;101654.06;5038262;28;20429;-66
2021/07/09 00:06:49;;;;;;;19.10;17.57;;;;;;;20.21;74.90;101650.44;5038198;28;20174;-66
2021/07/09 00:09:14;;;;;;;18.57;16.67;;;;;;;20.43;74.57;101653.63;5038255;28;20520;-66
2021/07/09 00:11:42;;;;;;;20.20;18.30;;;;;;;20.49;74.09;101653.50;5038774;28;20566;-66
2021/07/09 00:14:09;;;;;;;17.83;15.97;;;;;;;20.19;74.80;101661.06;5038066;28;20458;-66
2021/07/09 00:16:36;;;;;;;18.30;16.60;;;;;;;20.54;73.90;101661.38;5038306;28;20416;-66
2021/07/09 00:19:03;;;;;;;21.80;19.70;;;;;;;20.39;74.63;101656.34;5038539;28;20862;-66
2021/07/09 00:21:30;;;;;;;16.43;15.00;;;;;;;20.57;73.29;101649.88;5038027;28;20819;-66
2021/07/09 00:23:56;;;;;;;18.57;16.67;;;;;;;20.26;74.46;101645.09;5037851;28;20479;-66
2021/07/09 00:26:21;;;;;;;15.27;13.97;;;;;;;20.30;73.72;101637.06;5038325;28;20409;-66
2021/07/09 00:28:46;;;;;;;16.57;15.00;;;;;;;19.72;75.87;101635.28;5037968;28;20532;-66
2021/07/09 00:31:12;;;;;;;14.43;13.13;;;;;;;19.89;75.64;101632.41;5038213;28;20182;-67
2021/07/09 00:33:39;;;;;;;13.63;12.63;;;;;;;19.88;75.25;101633.28;5038277;28;20170;-66
2021/07/09 00:36:04;;;;;;;14.20;12.90;;;;;;;19.93;75.06;101636.75;5037747;28;20166;-66
2021/07/09 00:38:29;;;;;;;13.50;12.30;;;;;;;19.84;74.61;101625.41;5037657;28;20483;-66
2021/07/09 00:40:56;;;;;;;12.33;11.20;;;;;;;19.62;75.90;101629.22;5038417;28;20186;-66
2021/07/09 00:43:21;;;;;;;12.57;11.40;;;;;;;19.86;75.49;101625.38;5036178;28;20221;-66
2021/07/09 00:45:47;;;;;;;13.43;12.23;;;;;;;20.23;74.09;101616.88;5037739;28;20416;-66
2021/07/09 00:48:12;;;;;;;14.20;13.03;;;;;;;20.22;74.12;101616.91;5038361;28;20253;-66
2021/07/09 00:50:38;;;;;;;13.20;12.20;;;;;;;20.07;73.79;101616.25;5037848;28;20170;-66
2021/07/09 00:53:03;;;;;;;12.10;11.10;;;;;;;19.81;74.86;101620.16;5037646;28;20174;-66
2021/07/09 00:55:29;;;;;;;14.27;12.97;;;;;;;19.88;75.33;101617.41;5038129;28;20547;-66
2021/07/09 00:57:54;;;;;;;11.90;11.00;;;;;;;19.99;74.01;101618.16;5036925;28;20217;-66
2021/07/09 01:00:21;;;;;;;14.40;12.90;;;;;;;19.90;74.97;101616.50;5037714;28;20193;-67
2021/07/09 01:02:47;;;;;;;16.57;14.97;;;;;;;20.03;74.12;101622.50;5037052;28;20460;-67
2021/07/09 01:05:15;;;;;;;12.87;11.70;;;;;;;19.97;74.42;101626.13;5037707;28;20420;-67
2021/07/09 01:07:40;;;;;;;12.80;11.90;;;;;;;19.96;74.09;101626.16;5037590;28;20664;-66
2021/07/09 01:10:16;;;;;;;11.83;10.93;;;;;;;20.11;73.34;101625.88;5038049;28;20417;-66
2021/07/09 01:12:42;;;;;;;16.20;14.53;;;;;;;19.95;74.53;101629.69;5036715;28;20173;-66
2021/07/09 01:15:10;;;;;;;12.90;11.83;;;;;;;20.10;73.43;101629.44;5037456;28;20459;-66
2021/07/09 01:17:36;;;;;;;12.23;11.23;;;;;;;19.88;73.97;101634.19;5037333;28;20217;-66
2021/07/09 01:20:04;;;;;;;11.67;10.67;;;;;;;20.11;73.24;101633.84;5037414;28;20413;-66
2021/07/09 01:22:30;;;;;;;11.83;10.73;;;;;;;20.24;73.18;101630.97;5037837;28;20810;-66
2021/07/09 01:24:55;;;;;;;11.30;10.30;;;;;;;20.11;73.23;101623.25;5036457;28;20460;-66
2021/07/09 01:27:21;;;;;;;11.70;10.60;;;;;;;19.98;73.77;101619.03;5037473;28;20479;-66
2021/07/09 01:29:46;;;;;;;11.97;10.97;;;;;;;20.09;73.72;101616.22;5037844;28;20456;-66
2021/07/09 01:32:12;;;;;;;12.03;10.93;;;;;;;19.97;74.41;101620.81;5037299;28;20186;-66
2021/07/09 01:34:37;;;;;;;11.47;10.60;;;;;;;19.99;73.80;101620.78;5037310;28;20228;-66
2021/07/09 01:37:17;;;;;;;15.00;13.80;;;;;;;19.87;74.38;101624.50;5037743;28;20177;-66
2021/07/09 01:39:43;;;;;;;13.27;12.20;;;;;;;19.75;74.79;101614.94;5037320;28;20352;-66
2021/07/09 01:42:09;;;;;;;12.80;11.70;;;;;;;19.65;75.08;101621.25;5036985;28;20474;-66
2021/07/09 01:44:36;;;;;;;12.77;11.60;;;;;;;19.56;75.41;101616.97;5037140;28;20420;-66
2021/07/09 01:47:01;;;;;;;12.73;11.63;;;;;;;19.64;75.23;101616.88;5037184;28;20185;-66
2021/07/09 01:49:26;;;;;;;14.40;13.10;;;;;;;19.90;74.56;101605.91;5036934;28;20433;-66
2021/07/09 01:51:52;;;;;;;14.50;13.40;;;;;;;19.88;74.03;101612.13;5037135;28;20182;-66
2021/07/09 01:54:18;;;;;;;14.07;12.87;;;;;;;20.08;73.97;101606.53;5036947;28;20544;-66
2021/07/09 01:56:43;;;;;;;14.03;12.90;;;;;;;19.92;74.42;101603.28;5041434;28;20405;-66
2021/07/09 01:59:09;;;;;;;13.80;12.60;;;;;;;19.96;74.30;101610.25;5040814;28;20224;-66
2021/07/09 02:01:34;;;;;;;15.00;13.43;;;;;;;19.93;74.20;101602.34;5040879;28;20217;-65
2021/07/09 02:03:59;;;;;;;13.93;12.47;;;;;;;19.98;74.57;101603.16;5040984;28;20190;-66
2021/07/09 02:06:25;;;;;;;12.67;11.70;;;;;;;19.80;74.53;101594.59;5040583;28;20181;-66
2021/07/09 02:08:50;;;;;;;14.80;13.60;;;;;;;19.75;75.21;101604.34;5040599;28;20182;-66
2021/07/09 02:11:16;;;;;;;14.80;13.47;;;;;;;19.74;75.23;101609.66;5040534;28;20183;-66
2021/07/09 02:13:41;;;;;;;13.83;12.70;;;;;;;19.67;75.08;101612.41;5040488;28;20217;-65
2021/07/09 02:16:06;;;;;;;13.40;12.23;;;;;;;19.55;75.29;101609.91;5040501;28;20185;-66
2021/07/09 02:18:31;;;;;;;14.27;12.97;;;;;;;19.56;75.55;101609.03;5040838;28;20287;-66
2021/07/09 02:20:58;;;;;;;15.77;12.43;;;;;;;19.68;75.35;101615.91;5040362;28;20189;-66
2021/07/09 02:23:24;;;;;;;12.77;11.77;;;;;;;19.00;76.60;101624.72;5040189;28;20214;-66
2021/07/09 02:25:49;;;;;;;12.60;11.60;;;;;;;18.76;78.22;101625.81;5040674;28;20412;-66
2021/07/09 02:28:15;;;;;;;12.83;11.73;;;;;;;18.64;79.53;101640.03;5040287;28;20417;-66
2021/07/09 02:30:40;;;;;;;12.57;11.40;;;;;;;18.62;79.04;101644.47;5040192;28;20170;-66
2021/07/09 02:33:06;;;;;;;11.53;10.53;;;;;;;19.28;77.80;101637.59;5039703;28;20419;-67
2021/07/09 02:35:34;;;;;;;11.90;10.70;;;;;;;18.78;78.77;101647.81;5039993;28;20244;-66
2021/07/09 02:38:00;;;;;;;12.10;11.10;;;;;;;19.66;75.91;101636.22;5039135;28;20206;-66
2021/07/09 02:40:28;;;;;;;12.70;11.70;;;;;;;19.90;75.10;101640.31;5040347;28;20471;-67
2021/07/09 02:42:55;;;;;;;12.53;11.40;;;;;;;19.88;74.70;101623.59;5039767;28;20178;-66
2021/07/09 02:45:21;;;;;;;12.37;11.40;;;;;;;19.85;74.46;101629.81;5039127;28;20801;-66
2021/07/09 02:47:47;;;;;;;11.80;10.90;;;;;;;19.62;75.68;101632.75;5039653;28;20405;-67
2021/07/09 02:50:17;;;;;;;11.77;10.73;;;;;;;19.09;77.13;101626.38;5039675;28;20417;-67
2021/07/09 02:52:42;;;;;;;11.97;10.83;;;;;;;18.80;78.17;101638.97;5039766;28;20166;-68
2021/07/09 02:55:09;;;;;;;11.90;10.70;;;;;;;18.82;78.39;101633.66;5040347;28;20402;-66
2021/07/09 02:57:35;;;;;;;11.80;10.90;;;;;;;18.75;78.79;101632.84;5039509;28;20476;-67
2021/07/09 03:00:00;;;;;;;10.90;10.07;;;;;;;18.28;80.19;101626.25;5039532;28;20427;-65
2021/07/09 03:02:26;;;;;;;11.00;10.10;;;;;;;18.95;78.62;101619.47;5039847;28;20578;-66
2021/07/09 03:04:52;;;;;;;11.30;10.40;;;;;;;18.76;79.41;101626.69;5039421;28;20170;-66
2021/07/09 03:07:17;;;;;;;16.23;10.80;;;;;;;18.33;80.92;101625.34;5038613;28;20174;-66
2021/07/09 03:09:42;;;;;;;12.70;11.53;;;;;;;18.37;80.77;101615.63;5039981;28;20166;-67
2021/07/09 03:12:08;;;;;;;11.77;10.57;;;;;;;19.07;79.16;101607.91;5039334;28;20257;-66
2021/07/09 03:14:34;;;;;;;12.10;11.20;;;;;;;19.42;77.32;101603.06;5039582;28;20182;-66
2021/07/09 03:16:59;;;;;;;11.40;10.50;;;;;;;19.75;75.41;101596.41;5039827;28;20376;-66
2021/07/09 03:19:24;;;;;;;12.03;11.00;;;;;;;19.94;74.66;101594.38;5039355;28;20579;-67
2021/07/09 03:21:49;;;;;;;13.10;11.90;;;;;;;19.84;73.94;101593.66;5039272;28;20170;-67
2021/07/09 03:24:15;;;;;;;12.43;11.23;;;;;;;19.48;75.50;101600.31;5039069;28;20288;-67
2021/07/09 03:26:40;;;;;;;12.93;11.73;;;;;;;19.58;75.08;101601.97;5039400;28;20421;-67
2021/07/09 03:29:05;;;;;;;12.87;11.57;;;;;;;19.96;73.81;101611.13;5039306;28;20544;-67
2021/07/09 03:31:32;;;;;;;12.37;11.17;;;;;;;19.92;73.59;101608.56;5038906;28;20189;-67
2021/07/09 03:33:58;;;;;;;13.70;12.50;;;;;;;19.97;73.87;101604.03;5038738;28;20193;-67
2021/07/09 03:36:25;;;;;;;11.90;11.00;;;;;;;20.06;73.55;101600.41;5039721;28;20398;-67
2021/07/09 03:38:50;;;;;;;12.87;11.67;;;;;;;19.94;73.66;101598.81;5039060;28;20456;-66
2021/07/09 03:41:16;;;;;;;12.93;11.90;;;;;;;19.94;74.24;101612.03;5038810;28;20864;-66
2021/07/09 03:43:42;;;;;;;12.83;11.80;;;;;;;19.89;74.12;101608.59;5039280;28;20417;-66
2021/07/09 03:46:07;;;;;;;12.73;11.13;;;;;;;19.87;74.09;101603.31;5038865;28;20166;-66
2021/07/09 03:48:33;;;;;;;11.63;10.60;;;;;;;19.81;74.18;101601.66;5038696;28;20268;-66
2021/07/09 03:50:58;;;;;;;12.33;11.23;;;;;;;19.86;73.63;101601.56;5039222;28;20409;-66
2021/07/09 03:53:23;;;;;;;13.47;12.20;;;;;;;19.77;74.41;101596.38;5038607;28;20174;-66
2021/07/09 03:55:48;;;;;;;13.03;11.93;;;;;;;19.91;73.67;101591.78;5038655;28;20184;-67
2021/07/09 03:58:14;;;;;;;13.87;12.53;;;;;;;20.26;72.17;101585.03;5039028;28;20194;-66
2021/07/09 04:00:39;;;;;;;13.93;12.50;;;;;;;20.08;72.82;101582.69;5038599;28;20219;-66
2021/07/09 04:03:04;;;;;;;13.47;12.30;;;;;;;19.98;72.95;101574.91;5038216;28;20531;-66
2021/07/09 04:05:30;;;;;;;13.40;12.30;;;;;;;19.38;75.25;101578.44;5039130;28;20170;-66
2021/07/09 04:07:55;;;;;;;13.10;12.00;;;;;;;19.73;74.89;101571.75;5037530;28;20174;-66
2021/07/09 04:10:20;;;;;;;13.03;12.03;;;;;;;20.15;73.18;101569.34;5038500;28;20181;-66
2021/07/09 04:12:46;;;;;;;13.93;12.83;;;;;;;20.11;73.07;101562.34;5038798;28;20196;-66
2021/07/09 04:15:12;;;;;;;13.10;11.83;;;;;;;20.00;73.30;101553.72;5038512;28;20433;-66
2021/07/09 04:17:37;;;;;;;13.07;11.97;;;;;;;20.24;72.24;101548.91;5037942;28;20521;-66
2021/07/09 04:20:04;;;;;;;14.03;12.30;;;;;;;20.39;71.73;101546.00;5038559;28;20170;-66
2021/07/09 04:22:29;;;;;;;14.90;11.83;;;;;;;20.59;71.14;101540.28;5037975;28;20508;-65
2021/07/09 04:24:54;;;;;;;14.07;12.87;;;;;;;20.31;72.16;101535.53;5038018;28;20508;-66
2021/07/09 04:27:19;;;;;;;14.73;13.33;;;;;;;20.43;71.79;101538.84;5038555;28;20432;-66
2021/07/09 04:29:45;;;;;;;13.97;12.77;;;;;;;20.44;71.82;101536.16;5038331;28;20552;-66
2021/07/09 04:32:10;;;;;;;13.90;12.57;;;;;;;20.63;70.90;101539.31;5038607;28;20162;-66
2021/07/09 04:34:35;;;;;;;13.43;12.40;;;;;;;20.68;71.27;101547.22;5038442;28;20177;-66
2021/07/09 04:37:02;;;;;;;13.00;11.87;;;;;;;20.45;72.01;101551.16;5037911;28;20177;-66
2021/07/09 04:39:27;;;;;;;13.60;12.37;;;;;;;20.63;70.89;101549.06;5037949;28;20174;-66
2021/07/09 04:41:53;;;;;;;14.77;13.33;;;;;;;20.70;70.04;101545.41;5038348;28;20427;-66
2021/07/09 04:44:18;;;;;;;12.83;11.53;;;;;;;20.64;70.60;101542.88;5037713;28;20213;-67
2021/07/09 04:46:43;;;;;;;13.97;12.60;;;;;;;20.85;70.17;101538.94;5037603;28;20177;-67
2021/07/09 04:49:10;;;;;;;15.73;14.33;;;;;;;20.60;70.86;101543.84;5038333;28;20248;-65
2021/07/09 04:51:35;;;;;;;12.50;11.50;;;;;;;20.74;71.11;101549.75;5037704;28;20208;-66
2021/07/09 04:54:00;;;;;;;14.40;12.90;;;;;;;20.89;69.66;101553.91;5037790;28;20693;-66
2021/07/09 04:56:26;;;;;;;14.10;12.73;;;;;;;20.96;69.54;101549.31;5038207;28;20416;-66
2021/07/09 04:58:51;;;;;;;12.47;11.37;;;;;;;21.23;68.58;101552.28;5037583;28;20260;-66
2021/07/09 05:01:16;;;;;;;12.57;11.57;;;;;;;21.05;68.91;101551.78;5037530;28;20174;-66
2021/07/09 05:03:42;;;;;;;12.33;11.27;;;;;;;20.81;70.00;101556.69;5037812;28;20194;-66
2021/07/09 05:06:07;;;;;;;12.77;11.73;;;;;;;21.25;68.23;101548.69;5037518;28;20189;-66
2021/07/09 05:08:32;;;;;;;13.50;11.33;;;;;;;21.49;67.92;101541.97;5037396;28;20175;-66
2021/07/09 05:10:57;;;;;;;13.80;12.53;;;;;;;21.20;68.84;101546.16;5038035;28;20484;-66
2021/07/09 05:13:23;;;;;;;11.90;10.90;;;;;;;21.02;68.83;101546.53;5037138;28;20220;-67
2021/07/09 05:15:48;;;;;;;12.80;11.50;;;;;;;21.19;68.44;101557.66;5037512;28;20253;-66
2021/07/09 05:18:13;;;;;;;12.37;11.27;;;;;;;21.64;66.85;101554.03;5037787;28;20213;-66
2021/07/09 05:20:39;;;;;;;13.50;12.40;;;;;;;21.67;67.11;101553.94;5037547;28;20197;-66
2021/07/09 05:23:04;;;;;;;17.30;12.60;;;;;;;21.73;66.61;101557.38;5037120;28;20261;-66
2021/07/09 05:25:30;;;;;;;14.87;11.90;;;;;;;21.73;66.72;101542.34;5037998;28;20188;-66
2021/07/09 05:27:55;;;;;;;13.77;12.50;;;;;;;21.14;68.71;101538.31;5037500;28;20167;-66
2021/07/09 05:30:20;;;;;;;13.23;11.80;;;;;;;21.32;68.17;101544.13;5039080;28;20170;-66
2021/07/09 05:32:46;;;;;;;13.67;11.30;;;;;;;21.49;68.08;101531.34;5041556;28;20469;-66
2021/07/09 05:35:12;;;;;;;12.30;10.97;;;;;;;21.61;67.29;101534.66;5041411;28;20224;-66
2021/07/09 05:37:38;;;;;;;14.70;11.50;;;;;;;21.49;67.78;101534.00;5041229;28;20460;-66
2021/07/09 05:40:04;;;;;;;11.33;10.20;;;;;;;22.03;66.49;101539.84;5041701;28;20438;-66
2021/07/09 05:42:29;;;;;;;11.27;10.23;;;;;;;22.31;64.57;101536.44;5041045;28;20204;-67
2021/07/09 05:44:54;;;;;;;10.50;9.23;;;;;;;22.13;65.16;101532.50;5041138;28;20503;-66
2021/07/09 05:47:20;;;;;;;11.33;10.03;;;;;;;22.24;65.13;101532.22;5041623;28;20166;-66
2021/07/09 05:49:45;;;;;;;11.40;10.20;;;;;;;22.35;65.06;101522.19;5041415;28;20562;-67
2021/07/09 05:52:11;;;;;;;11.13;10.03;;;;;;;22.41;64.66;101524.69;5040026;28;20177;-66
2021/07/09 05:54:36;;;;;;;10.80;9.87;;;;;;;22.23;65.76;101530.47;5041423;28;20198;-67
2021/07/09 05:57:02;;;;;;;11.40;10.23;;;;;;;22.01;66.62;101525.72;5040830;28;20575;-66
2021/07/09 05:59:28;;;;;;;10.50;9.50;;;;;;;21.76;66.73;101536.06;5040761;28;20405;-66
2021/07/09 06:01:53;;;;;;;11.43;10.40;;;;;;;21.83;66.49;101530.56;5041191;28;20423;-66
2021/07/09 06:04:19;;;;;;;11.33;9.60;;;;;;;22.11;65.84;101532.53;5040640;28;20513;-67
2021/07/09 06:06:44;;;;;;;10.90;9.80;;;;;;;22.18;65.71;101528.81;5040654;28;20175;-66
2021/07/09 06:09:10;;;;;;;10.57;9.57;;;;;;;22.17;66.05;101535.00;5041537;28;20540;-66
2021/07/09 06:11:35;;;;;;;11.20;9.43;;;;;;;22.17;66.04;101542.13;5040626;28;20189;-66
2021/07/09 06:14:01;;;;;;;10.17;9.23;;;;;;;22.19;66.01;101538.53;5040307;28;20250;-67
2021/07/09 06:16:27;;;;;;;10.10;9.00;;;;;;;21.98;66.82;101545.25;5041082;28;20401;-66
2021/07/09 06:18:52;;;;;;;10.67;9.67;;;;;;;22.24;66.22;101532.22;5040421;28;20690;-65
2021/07/09 06:21:17;;;;;;;15.20;10.33;;;;;;;21.98;66.86;101542.59;5040544;28;20170;-65
2021/07/09 06:23:43;;;;;;;11.77;10.03;;;;;;;22.27;65.67;101535.66;5040295;28;20267;-66
2021/07/09 06:26:09;;;;;;;10.90;10.00;;;;;;;22.10;66.36;101540.56;5040503;28;20551;-66
2021/07/09 06:28:34;;;;;;;9.40;8.40;;;;;;;22.04;66.09;101539.78;5039647;28;20205;-66
2021/07/09 06:31:00;;;;;;;13.53;9.60;;;;;;;22.21;65.83;101539.34;5040257;28;20459;-66
2021/07/09 06:33:25;;;;;;;8.93;8.13;;;;;;;22.37;64.82;101539.84;5040066;28;20170;-66
2021/07/09 06:35:50;;;;;;;9.40;8.60;;;;;;;22.10;65.41;101540.56;5040799;28;20162;-66
2021/07/09 06:38:15;;;;;;;11.53;8.70;;;;;;;22.02;65.26;101535.44;5039936;28;20288;-66
2021/07/09 06:40:43;;;;;;;9.50;8.60;;;;;;;22.02;65.61;101535.44;5039617;28;20185;-65
2021/07/09 06:43:10;;;;;;;10.77;8.70;;;;;;;21.84;65.93;101542.94;5039410;28;20217;-65
2021/07/09 06:45:36;;;;;;;13.00;8.93;;;;;;;21.92;65.18;101542.75;5039943;28;20535;-66
2021/07/09 06:48:02;;;;;;;12.80;8.17;;;;;;;21.86;65.53;101534.94;5039799;28;20757;-66
2021/07/09 06:50:27;;;;;;;8.20;7.50;;;;;;;21.96;65.67;101540.88;5040123;28;20170;-67
2021/07/09 06:52:52;;;;;;;7.93;7.13;;;;;;;21.94;65.18;101537.41;5039581;28;20555;-65
2021/07/09 06:55:18;;;;;;;8.20;7.50;;;;;;;21.99;65.07;101538.16;5039590;28;20170;-67
2021/07/09 06:57:49;;;;;;;9.20;8.40;;;;;;;21.93;66.08;101546.28;5040170;28;20186;-66
2021/07/09 07:00:17;;;;;;;7.97;7.30;;;;;;;22.28;64.35;101540.03;5039765;28;20175;-67
2021/07/09 07:02:42;;;;;;;8.20;7.40;;;;;;;22.77;62.64;101539.66;5039408;28;20433;-68
2021/07/09 07:05:08;;;;;;;8.20;7.40;;;;;;;22.45;63.00;101544.94;5040130;28;20416;-70
2021/07/09 07:07:33;;;;;;;7.37;6.63;;;;;;;22.70;62.56;101541.59;5039409;28;20173;-66
2021/07/09 07:09:58;;;;;;;8.33;7.63;;;;;;;22.48;63.97;101530.72;5039417;28;20181;-66
2021/07/09 07:12:26;;;;;;;7.57;6.83;;;;;;;22.64;63.62;101531.16;5039923;28;20270;-65
2021/07/09 07:14:51;;;;;;;8.40;7.67;;;;;;;22.87;63.16;101526.03;5039404;28;20178;-67
2021/07/09 07:17:17;;;;;;;8.20;7.40;;;;;;;22.55;63.65;101540.25;5039290;28;20481;-67
2021/07/09 07:19:42;;;;;;;9.87;7.90;;;;;;;22.29;64.07;101549.75;5040119;28;20201;-65
2021/07/09 07:22:08;;;;;;;8.20;7.60;;;;;;;22.35;64.40;101543.44;5055156;28;20185;-66
2021/07/09 07:24:33;;;;;;;8.33;7.63;;;;;;;22.69;63.59;101540.75;5040455;28;20214;-66
2021/07/09 07:26:59;;;;;;;10.43;7.03;;;;;;;22.76;63.34;101544.09;5059473;28;20170;-66
2021/07/09 07:29:24;;;;;;;8.40;7.60;;;;;;;22.68;62.75;101544.31;5058816;28;20169;-66
2021/07/09 07:31:50;;;;;;;10.50;7.60;;;;;;;22.69;62.48;101547.81;5058819;28;20165;-66
2021/07/09 07:34:16;;;;;;;7.97;7.17;;;;;;;22.36;63.48;101546.06;5059064;28;20169;-66
2021/07/09 07:36:41;;;;;;;7.80;7.00;;;;;;;23.04;61.69;101536.19;5058739;28;20428;-66
2021/07/09 07:39:07;;;;;;;8.10;7.33;;;;;;;22.71;62.06;101552.19;5058565;28;20209;-65
2021/07/09 07:41:32;;;;;;;9.10;8.23;;;;;;;22.69;62.12;101555.78;5059274;28;20170;-66
2021/07/09 07:43:57;;;;;;;8.47;7.63;;;;;;;23.25;61.82;101548.94;5057654;28;20166;-67
2021/07/09 07:46:23;;;;;;;8.20;7.40;;;;;;;23.57;60.32;101547.91;5058479;28;20166;-67
2021/07/09 07:48:48;;;;;;;10.03;7.47;;;;;;;23.01;61.61;101554.00;5058864;28;20181;-67
2021/07/09 07:51:14;;;;;;;8.17;7.47;;;;;;;23.40;60.55;101550.25;5057893;28;20166;-67
2021/07/09 07:53:39;;;;;;;8.40;7.60;;;;;;;23.47;60.48;101554.44;5058236;28;20180;-65
2021/07/09 07:56:05;;;;;;;7.80;7.00;;;;;;;23.06;61.47;101546.78;5058958;28;20491;-65
2021/07/09 07:58:30;;;;;;;9.70;8.00;;;;;;;23.49;60.28;101541.94;5058389;28;20216;-65
2021/07/09 08:00:57;;;;;;;9.43;8.63;;;;;;;23.51;59.40;101542.78;5058511;28;20412;-66
2021/07/09 08:03:23;;;;;;;11.63;8.60;;;;;;;23.28;59.98;101552.34;5058574;28;20184;-67
2021/07/09 08:05:48;;;;;;;8.70;7.10;;;;;;;22.95;61.37;101548.84;5058403;28;20690;-67
2021/07/09 08:08:13;;;;;;;8.40;7.70;;;;;;;22.88;61.13;101550.84;5058387;28;20180;-66
2021/07/09 08:10:39;;;;;;;8.70;8.00;;;;;;;23.49;59.88;101544.59;5058576;28;20184;-66
2021/07/09 08:13:04;;;;;;;8.17;7.40;;;;;;;23.58;59.22;101548.78;5058126;28;20186;-66
2021/07/09 08:15:29;;;;;;;8.00;7.20;;;;;;;23.36;60.53;101550.31;5058116;28;20180;-66
2021/07/09 08:17:55;;;;;;;9.20;8.30;;;;;;;23.18;60.53;101556.22;5058552;28;20410;-70
2021/07/09 08:20:20;;;;;;;9.70;8.70;;;;;;;23.51;59.96;101554.28;5058009;28;20208;-72
2021/07/09 08:22:45;;;;;;;7.33;6.63;;;;;;;23.69;58.92;101549.28;5057615;28;20216;-67
2021/07/09 08:25:11;;;;;;;7.93;7.13;;;;;;;23.49;60.16;101553.47;5057725;28;20248;-66
2021/07/09 08:27:40;;;;;;;8.20;6.10;;;;;;;23.62;58.81;101561.91;5057773;28;20173;-66
2021/07/09 08:30:07;;;;;;;7.40;6.70;;;;;;;23.59;58.46;101563.84;5058150;28;20418;-66
2021/07/09 08:32:33;;;;;;;9.10;6.10;;;;;;;23.77;58.34;101559.69;5057655;28;20694;-66
2021/07/09 08:34:58;;;;;;;6.90;6.00;;;;;;;23.36;59.24;101568.06;5057266;28;20416;-67
2021/07/09 08:37:24;;;;;;;6.10;5.50;;;;;;;23.34;58.99;101572.56;5058351;28;20570;-66
2021/07/09 08:39:49;;;;;;;6.07;5.47;;;;;;;23.72;57.98;101570.50;5058428;28;20466;-66
2021/07/09 08:42:14;;;;;;;7.07;5.63;;;;;;;23.71;58.02;101560.78;5057702;28;20173;-67
2021/07/09 08:44:39;;;;;;;8.93;8.13;;;;;;;24.08;56.68;101558.72;5058392;28;20242;-66
2021/07/09 08:47:05;;;;;;;6.33;5.83;;;;;;;24.54;55.83;101560.66;5057869;28;20169;-67
2021/07/09 08:49:31;;;;;;;7.00;6.37;;;;;;;24.51;55.15;101557.22;5057854;28;20207;-66
2021/07/09 08:51:57;;;;;;;7.70;5.77;;;;;;;24.65;54.46;101565.63;5057863;28;20545;-67
2021/07/09 08:54:22;;;;;;;5.87;5.37;;;;;;;23.99;56.37;101566.09;5057565;28;20404;-66
2021/07/09 08:56:49;;;;;;;6.80;6.20;;;;;;;24.02;56.50;101565.13;5057490;28;20165;-66
2021/07/09 08:59:15;;;;;;;6.30;5.80;;;;;;;23.37;58.30;101561.84;5058116;28;20221;-65
2021/07/09 09:01:58;;;;;;;6.50;6.00;;;;;;;24.95;54.24;101546.75;5057527;28;20499;-66
2021/07/09 09:04:34;;;;;;;5.83;5.23;;;;;;;24.82;54.25;101551.66;5056864;28;20173;-66
2021/07/09 09:07:04;;;;;;;7.57;5.27;;;;;;;24.31;55.04;101544.59;5057751;28;20498;-66
2021/07/09 09:09:31;;;;;;;5.83;5.30;;;;;;;24.62;54.75;101554.19;5057886;28;20434;-66
2021/07/09 09:12:04;;;;;;;7.90;5.63;;;;;;;24.91;53.42;101544.22;5057645;28;20740;-70
2021/07/09 09:14:33;;;;;;;6.47;5.00;;;;;;;25.04;52.38;101549.03;5057545;28;20409;-68
2021/07/09 09:16:58;;;;;;;5.63;5.03;;;;;;;25.82;50.72;101546.03;5057634;28;20448;-65
2021/07/09 09:19:23;;;;;;;5.97;5.40;;;;;;;25.88;49.44;101546.66;5057130;28;20459;-66
2021/07/09 09:22:12;;;;;;;6.90;4.97;;;;;;;24.93;51.73;101543.25;5057566;28;20247;-66
2021/07/09 09:24:38;;;;;;;4.90;4.50;;;;;;;25.68;49.97;101546.56;5057419;28;20290;-66
2021/07/09 09:27:18;;;;;;;9.77;6.50;;;;;;;25.05;51.75;101540.09;5057711;28;20535;-66
2021/07/09 09:29:43;;;;;;;34.83;16.20;;;;;;;25.07;51.96;101532.03;5057610;28;20408;-66
2021/07/09 09:32:09;;;;;;;6.80;6.10;;;;;;;25.44;51.25;101527.97;5057378;28;20412;-66
2021/07/09 09:34:42;;;;;;;5.43;4.93;;;;;;;25.01;51.73;101532.28;5056663;28;20200;-65
2021/07/09 09:37:09;;;;;;;5.57;5.07;;;;;;;24.54;53.38;101533.09;5057326;28;20235;-65
2021/07/09 09:39:34;;;;;;;6.40;5.37;;;;;;;24.83;52.30;101533.84;5057419;28;20495;-65
2021/07/09 09:42:18;;;;;;;6.00;5.53;;;;;;;24.59;53.18;101540.94;5057486;28;20412;-65
2021/07/09 09:44:48;;;;;;;6.03;5.53;;;;;;;24.22;53.89;101537.81;5057591;28;20543;-65
2021/07/09 09:47:18;;;;;;;6.20;5.60;;;;;;;24.52;53.26;101535.84;5057409;28;20847;-67
2021/07/09 09:49:44;;;;;;;6.20;5.60;;;;;;;24.11;54.48;101539.94;5055999;28;20439;-66
2021/07/09 09:52:09;;;;;;;7.20;6.60;;;;;;;24.14;55.45;101537.16;5056933;28;20443;-66
2021/07/09 09:54:35;;;;;;;6.63;6.03;;;;;;;24.02;55.57;101546.47;5057042;28;20419;-67
2021/07/09 09:57:00;;;;;;;7.50;5.77;;;;;;;24.04;55.55;101532.19;5057201;28;20173;-67
2021/07/09 09:59:27;;;;;;;6.37;5.77;;;;;;;23.98;55.97;101529.72;5056095;28;20500;-66
2021/07/09 10:02:05;;;;;;;6.63;5.83;;;;;;;23.97;55.60;101521.78;5057509;28;20421;-65
2021/07/09 10:04:31;;;;;;;7.20;6.53;;;;;;;23.70;56.83;101529.75;5057009;28;20816;-67
2021/07/09 10:06:58;;;;;;;6.53;5.90;;;;;;;23.63;56.64;101534.38;5056939;28;20428;-67
2021/07/09 10:09:24;;;;;;;6.53;6.00;;;;;;;23.71;56.32;101528.81;5056893;28;20420;-66
2021/07/09 10:11:51;;;;;;;7.33;6.70;;;;;;;23.84;55.85;101519.50;5056662;28;20470;-66
2021/07/09 10:14:18;;;;;;;7.73;6.43;;;;;;;23.45;56.59;101519.91;5057050;28;20818;-67
2021/07/09 10:16:45;;;;;;;9.00;6.47;;;;;;;23.65;56.85;101518.38;5058979;28;20424;-68
2021/07/09 10:19:15;;;;;;;7.30;6.60;;;;;;;24.03;56.26;101513.56;5060371;28;20513;-69
2021/07/09 10:21:41;;;;;;;6.97;6.43;;;;;;;24.41;54.98;101519.38;5060100;28;20797;-68
2021/07/09 10:24:08;;;;;;;7.03;6.43;;;;;;;24.46;53.98;101513.84;5060100;28;20456;-68
2021/07/09 10:26:34;;;;;;;6.57;5.93;;;;;;;24.05;54.78;101522.41;5059625;28;20583;-68
2021/07/09 10:29:20;;;;;;;6.80;6.00;;;;;;;23.92;55.32;101515.75;5059502;28;20448;-68
2021/07/09 10:31:47;;;;;;;7.47;6.03;;;;;;;24.06;54.95;101513.50;5060318;28;20428;-68
2021/07/09 10:34:25;;;;;;;6.70;6.20;;;;;;;23.77;55.58;101509.97;5059951;28;20867;-67
2021/07/09 10:36:56;;;;;;;6.70;6.00;;;;;;;23.78;55.83;101508.19;5060070;28;20840;-67
2021/07/09 10:39:39;;;;;;;8.70;7.77;;;;;;;24.07;55.09;101503.69;5060019;28;20765;-67
2021/07/09 10:42:15;;;;;;;7.07;6.37;;;;;;;24.31;54.46;101508.13;5060064;28;20415;-68
2021/07/09 10:45:15;;;;;;;6.50;6.00;;;;;;;24.38;54.18;101509.69;5059665;28;20684;-69
2021/07/09 10:47:40;;;;;;;6.90;6.30;;;;;;;24.35;54.13;101506.25;5060062;28;20408;-67
2021/07/09 10:50:08;;;;;;;6.40;5.90;;;;;;;24.46;53.12;101512.03;5059877;28;20419;-67
2021/07/09 10:52:46;;;;;;;6.83;6.33;;;;;;;24.39;54.00;101506.06;5059798;28;20212;-67
2021/07/09 10:55:24;;;;;;;7.13;6.33;;;;;;;24.75;53.10;101503.94;5059558;28;20526;-66
2021/07/09 10:58:19;;;;;;;6.83;6.23;;;;;;;24.52;53.86;101503.84;5059599;28;20828;-67
2021/07/09 11:00:55;;;;;;;6.57;6.00;;;;;;;24.67;53.67;101497.09;5060113;28;20749;-67
2021/07/09 11:03:40;;;;;;;6.57;5.97;;;;;;;23.80;56.60;101501.00;5059413;28;20502;-67
2021/07/09 11:06:10;;;;;;;7.30;6.63;;;;;;;23.73;56.21;101494.16;5059658;28;20737;-66
2021/07/09 11:08:40;;;;;;;6.77;6.17;;;;;;;23.74;55.83;101490.59;5059627;28;20511;-67
2021/07/09 11:11:11;;;;;;;7.00;6.40;;;;;;;24.02;55.06;101495.88;5059646;28;20412;-67
2021/07/09 11:13:39;;;;;;;8.30;6.00;;;;;;;23.73;55.18;101495.03;5059467;28;20419;-67
2021/07/09 11:16:35;;;;;;;9.23;6.00;;;;;;;23.38;56.34;101494.38;5059661;28;20426;-66